Time;durP1;ratioP1;P1;durP2;ratioP2;P2;SDS_P1;SDS_P2;PMS_P1;PMS_P2;Temp;Humidity;BMP_temperature;BMP_pressure;BME280_temperature;BME280_humidity;BME280_pressure;Samples;Min_cycle;Max_cycle;Signal;HPM_P1;HPM_P2
2022/01/29 00:00:11;;;;;;;31.67;22.10;;;;;;;-144.47;100.00;61586.06;4953408;29;20035;-79
2022/01/29 00:02:40;;;;;;;27.17;20.60;;;;;;;-144.47;100.00;61586.06;4954995;28;20042;-79
2022/01/29 00:05:06;;;;;;;33.83;21.35;;;;;;;-144.47;100.00;61586.06;4954537;28;20527;-78
2022/01/29 00:07:32;;;;;;;33.35;22.13;;;;;;;-144.47;100.00;61586.06;4953281;29;20042;-79
2022/01/29 00:10:03;;;;;;;26.98;19.13;;;;;;;-144.47;100.00;61586.06;4954878;28;20035;-78
2022/01/29 00:12:29;;;;;;;33.88;20.55;;;;;;;-144.47;100.00;61586.06;4953974;28;20427;-78
2022/01/29 00:14:55;;;;;;;32.35;20.85;;;;;;;-144.47;100.00;61586.06;4954357;28;20047;-78
2022/01/29 00:17:20;;;;;;;32.05;20.23;;;;;;;-144.47;100.00;61586.06;4953918;28;20042;-78
2022/01/29 00:19:46;;;;;;;31.23;21.15;;;;;;;-144.47;100.00;61586.06;4954431;28;20341;-77
2022/01/29 00:22:11;;;;;;;32.75;20.75;;;;;;;-144.47;100.00;61586.06;4953713;28;20031;-77
2022/01/29 00:24:37;;;;;;;35.00;21.75;;;;;;;-144.47;100.00;61586.06;4954558;28;20141;-78
2022/01/29 00:27:08;;;;;;;34.55;21.33;;;;;;;-144.47;100.00;61586.06;4953936;28;20385;-78
2022/01/29 00:29:35;;;;;;;34.22;20.48;;;;;;;-144.47;100.00;61586.06;4954279;28;20555;-76
2022/01/29 00:32:00;;;;;;;33.00;21.27;;;;;;;-144.47;100.00;61586.06;4955391;28;20032;-78
2022/01/29 00:34:26;;;;;;;33.10;20.80;;;;;;;-144.47;100.00;61586.06;4952144;29;20497;-79
2022/01/29 00:36:51;;;;;;;36.25;22.65;;;;;;;-144.47;100.00;61586.06;4954165;28;20118;-78
2022/01/29 00:39:17;;;;;;;36.85;21.88;;;;;;;-144.47;100.00;61586.06;4953566;28;20031;-80
2022/01/29 00:41:43;;;;;;;29.55;20.55;;;;;;;-144.47;100.00;61586.06;4949479;29;20090;-79
2022/01/29 00:44:09;;;;;;;32.70;21.25;;;;;;;-144.47;100.00;61586.06;4953585;28;20035;-79
2022/01/29 00:46:40;;;;;;;32.05;21.05;;;;;;;-144.47;100.00;61586.06;4952483;29;20127;-78
2022/01/29 00:49:06;;;;;;;31.45;20.58;;;;;;;-144.47;100.00;61586.06;4952132;29;20074;-78
2022/01/29 00:51:31;;;;;;;33.38;21.63;;;;;;;-144.47;100.00;61586.06;4953618;28;20058;-78
2022/01/29 00:53:57;;;;;;;34.45;21.95;;;;;;;-144.47;100.00;61586.06;4951963;28;20035;-76
2022/01/29 00:56:22;;;;;;;33.17;21.63;;;;;;;-144.47;100.00;61586.06;4952770;28;20063;-79
2022/01/29 00:58:48;;;;;;;31.95;21.17;;;;;;;-144.47;100.00;61586.06;4952184;29;20043;-79
2022/01/29 01:01:13;;;;;;;32.70;21.92;;;;;;;-144.47;100.00;61586.06;4953749;28;20121;-78
2022/01/29 01:03:39;;;;;;;32.38;21.73;;;;;;;-144.47;100.00;61586.06;4953924;28;20083;-78
2022/01/29 01:06:04;;;;;;;29.88;20.25;;;;;;;-144.47;100.00;61586.06;4952357;28;20032;-78
2022/01/29 01:08:30;;;;;;;32.72;21.95;;;;;;;-144.47;100.00;61586.06;4953003;29;20043;-78
2022/01/29 01:10:55;;;;;;;32.03;21.85;;;;;;;-144.47;100.00;61586.06;4953195;28;20043;-78
2022/01/29 01:13:21;;;;;;;37.17;21.88;;;;;;;-144.47;100.00;61586.06;4952814;28;20114;-79
2022/01/29 01:15:46;;;;;;;35.83;21.92;;;;;;;-144.47;100.00;61586.06;4953534;28;20078;-76
2022/01/29 01:18:12;;;;;;;34.50;21.88;;;;;;;-144.47;100.00;61586.06;4953147;28;20134;-79
2022/01/29 01:20:37;;;;;;;34.47;22.25;;;;;;;-144.47;100.00;61586.06;4952830;28;20046;-78
2022/01/29 01:23:03;;;;;;;29.92;20.83;;;;;;;-144.47;100.00;61586.06;4953168;28;20043;-77
2022/01/29 01:25:29;;;;;;;33.90;21.95;;;;;;;-144.47;100.00;61586.06;4952997;28;20035;-77
2022/01/29 01:27:56;;;;;;;32.80;20.48;;;;;;;-144.47;100.00;61586.06;4952921;28;20031;-78
2022/01/29 01:30:22;;;;;;;32.15;21.20;;;;;;;-144.47;100.00;61586.06;4952685;28;20031;-77
2022/01/29 01:32:47;;;;;;;31.20;20.00;;;;;;;-144.47;100.00;61586.06;4954619;28;20048;-78
2022/01/29 01:35:27;;;;;;;31.23;20.70;;;;;;;-144.47;100.00;61586.06;4951434;28;20043;-78
2022/01/29 01:37:58;;;;;;;30.95;20.33;;;;;;;-144.47;100.00;61586.06;4948940;29;20027;-76
2022/01/29 01:40:26;;;;;;;33.25;20.52;;;;;;;-144.47;100.00;61586.06;4951138;29;20062;-78
2022/01/29 01:42:58;;;;;;;28.30;20.20;;;;;;;-144.47;100.00;61586.06;4952790;28;20147;-79
2022/01/29 01:45:24;;;;;;;33.60;20.10;;;;;;;-144.47;100.00;61586.06;4952447;28;20070;-79
2022/01/29 01:47:49;;;;;;;30.10;20.20;;;;;;;-144.47;100.00;61586.06;4951696;29;20035;-79
2022/01/29 01:50:15;;;;;;;32.17;20.13;;;;;;;-144.47;100.00;61586.06;4952702;28;20027;-79
2022/01/29 01:52:41;;;;;;;33.95;21.35;;;;;;;-144.47;100.00;61586.06;4952779;28;20511;-79
2022/01/29 01:55:07;;;;;;;39.30;23.02;;;;;;;-144.47;100.00;61586.06;4952817;28;20035;-79
2022/01/29 01:57:32;;;;;;;32.28;20.40;;;;;;;-144.47;100.00;61586.06;4952316;28;20035;-78
2022/01/29 01:59:58;;;;;;;32.53;20.20;;;;;;;-144.47;100.00;61586.06;4951544;29;20043;-79
2022/01/29 02:02:23;;;;;;;34.28;21.13;;;;;;;-144.47;100.00;61586.06;4954458;28;20054;-77
2022/01/29 02:04:50;;;;;;;36.80;22.33;;;;;;;-144.47;100.00;61586.06;4952825;28;20043;-78
2022/01/29 02:07:17;;;;;;;31.65;20.20;;;;;;;-144.47;100.00;61586.06;4956123;28;20031;-77
2022/01/29 02:09:43;;;;;;;29.15;19.77;;;;;;;-144.47;100.00;61586.06;4952862;29;20075;-77
2022/01/29 02:12:10;;;;;;;34.13;20.67;;;;;;;-144.47;100.00;61586.06;4955626;28;20043;-77
2022/01/29 02:14:38;;;;;;;30.88;20.80;;;;;;;-144.47;100.00;61586.06;4956489;29;20087;-78
2022/01/29 02:19:30;;;;;;;30.88;20.17;;;;;;;-144.47;100.00;61586.06;4966018;28;20129;-75
2022/01/29 02:21:57;;;;;;;28.77;20.27;;;;;;;-144.47;100.00;61586.06;4965358;28;20118;-76
2022/01/29 02:24:23;;;;;;;34.28;20.60;;;;;;;-144.47;100.00;61586.06;4960604;28;20110;-76
2022/01/29 02:26:48;;;;;;;29.23;21.25;;;;;;;-144.47;100.00;61586.06;4964196;28;20122;-76
2022/01/29 02:29:15;;;;;;;28.50;20.02;;;;;;;-144.47;100.00;61586.06;4964471;28;20042;-76
2022/01/29 02:31:56;;;;;;;36.08;20.88;;;;;;;-144.47;100.00;61586.06;4963496;28;20076;-76
2022/01/29 02:34:23;;;;;;;34.80;20.80;;;;;;;-144.47;100.00;61586.06;4960404;28;20032;-77
2022/01/29 02:36:50;;;;;;;32.85;20.25;;;;;;;-144.47;100.00;61586.06;4966368;28;20035;-77
2022/01/29 02:39:18;;;;;;;36.35;21.77;;;;;;;-144.47;100.00;61586.06;4962316;28;20055;-76
2022/01/29 02:41:44;;;;;;;35.13;21.30;;;;;;;-144.47;100.00;61586.06;4958952;28;20035;-76
2022/01/29 02:44:17;;;;;;;32.08;21.40;;;;;;;-144.47;100.00;61586.06;4965492;28;20026;-76
2022/01/29 02:46:54;;;;;;;35.40;20.70;;;;;;;-144.47;100.00;61586.06;4962930;28;20110;-76
2022/01/29 02:49:22;;;;;;;35.53;22.35;;;;;;;-144.47;100.00;61586.06;4975598;28;20461;-76
2022/01/29 02:51:57;;;;;;;32.17;20.35;;;;;;;-144.47;100.00;61586.06;4966126;28;20023;-75
2022/01/29 02:54:24;;;;;;;32.38;21.45;;;;;;;-144.47;100.00;61586.06;4962567;28;20035;-76
2022/01/29 02:56:50;;;;;;;35.60;23.80;;;;;;;-144.47;100.00;61586.06;4965478;28;20124;-76
2022/01/29 02:59:16;;;;;;;33.72;22.38;;;;;;;-144.47;100.00;61586.06;4962350;28;20035;-76
2022/01/29 03:01:42;;;;;;;36.33;22.08;;;;;;;-144.47;100.00;61586.06;4965587;28;20050;-76
2022/01/29 03:04:08;;;;;;;35.17;21.42;;;;;;;-144.47;100.00;61586.06;4962840;28;20057;-76
2022/01/29 03:06:33;;;;;;;35.33;21.52;;;;;;;-144.47;100.00;61586.06;4963244;28;20059;-76
2022/01/29 03:09:00;;;;;;;32.50;21.30;;;;;;;-144.47;100.00;61586.06;4964280;28;20521;-75
2022/01/29 03:11:25;;;;;;;32.47;21.88;;;;;;;-144.47;100.00;61586.06;4962701;28;20110;-75
2022/01/29 03:13:51;;;;;;;38.28;22.27;;;;;;;-144.47;100.00;61586.06;4965093;28;20119;-76
2022/01/29 03:16:18;;;;;;;34.92;22.38;;;;;;;-144.47;100.00;61586.06;4961406;28;20039;-76
2022/01/29 03:18:43;;;;;;;36.88;22.15;;;;;;;-144.47;100.00;61586.06;4974596;28;20125;-76
2022/01/29 03:21:09;;;;;;;35.22;23.90;;;;;;;-144.47;100.00;61586.06;4962299;28;20031;-75
2022/01/29 03:23:35;;;;;;;36.75;22.83;;;;;;;-144.47;100.00;61586.06;4964020;28;20035;-76
2022/01/29 03:26:00;;;;;;;36.28;23.48;;;;;;;-144.47;100.00;61586.06;4963218;28;20495;-76
2022/01/29 03:28:28;;;;;;;35.40;22.88;;;;;;;-144.47;100.00;61586.06;4962306;28;20431;-76
2022/01/29 03:30:55;;;;;;;36.20;22.85;;;;;;;-144.47;100.00;61586.06;4964304;28;20042;-76
2022/01/29 03:33:22;;;;;;;38.38;23.20;;;;;;;-144.47;100.00;61586.06;4961692;28;20031;-76
2022/01/29 03:35:47;;;;;;;40.92;24.05;;;;;;;-144.47;100.00;61586.06;4963722;28;20387;-77
2022/01/29 03:38:13;;;;;;;36.25;22.15;;;;;;;-144.47;100.00;61586.06;4960022;28;20031;-77
2022/01/29 03:40:40;;;;;;;39.20;24.10;;;;;;;-144.47;100.00;61586.06;4964798;28;20022;-77
2022/01/29 03:43:09;;;;;;;34.83;22.15;;;;;;;-144.47;100.00;61586.06;4961235;28;20399;-75
2022/01/29 03:45:35;;;;;;;30.90;21.53;;;;;;;-144.47;100.00;61586.06;4961610;28;20035;-75
2022/01/29 03:48:01;;;;;;;33.50;22.88;;;;;;;-144.47;100.00;61586.06;4963808;28;20141;-76
2022/01/29 03:50:26;;;;;;;34.45;21.77;;;;;;;-144.47;100.00;61586.06;4962303;28;20039;-76
2022/01/29 03:52:52;;;;;;;33.60;22.40;;;;;;;-144.47;100.00;61586.06;4964206;28;20034;-76
2022/01/29 03:55:18;;;;;;;34.58;21.67;;;;;;;-144.47;100.00;61586.06;4961390;28;20042;-76
2022/01/29 03:57:44;;;;;;;33.47;22.23;;;;;;;-144.47;100.00;61586.06;4956999;28;20154;-76
2022/01/29 04:00:10;;;;;;;36.60;23.60;;;;;;;-144.47;100.00;61586.06;4963676;28;20125;-76
2022/01/29 04:02:35;;;;;;;35.05;22.83;;;;;;;-144.47;100.00;61586.06;4961850;28;20027;-76
2022/01/29 04:05:01;;;;;;;39.55;23.33;;;;;;;-144.47;100.00;61586.06;4962863;28;20608;-77
2022/01/29 04:07:27;;;;;;;41.42;24.38;;;;;;;-144.47;100.00;61586.06;4962794;28;20550;-76
2022/01/29 04:09:53;;;;;;;35.08;22.67;;;;;;;-144.47;100.00;61586.06;4960444;28;20027;-75
2022/01/29 04:12:19;;;;;;;38.65;22.00;;;;;;;-144.47;100.00;61586.06;4963464;28;20030;-75
2022/01/29 04:14:45;;;;;;;35.08;22.85;;;;;;;-144.47;100.00;61586.06;4960595;28;20027;-75
2022/01/29 04:17:11;;;;;;;32.42;22.25;;;;;;;-144.47;100.00;61586.06;4962519;28;20534;-74
2022/01/29 04:19:37;;;;;;;34.60;22.05;;;;;;;-144.47;100.00;61586.06;4963283;28;20345;-75
2022/01/29 04:22:05;;;;;;;33.20;21.02;;;;;;;-144.47;100.00;61586.06;4962030;28;20035;-75
2022/01/29 04:24:31;;;;;;;34.95;22.45;;;;;;;-144.47;100.00;61586.06;4962182;28;20435;-75
2022/01/29 04:26:57;;;;;;;31.13;21.98;;;;;;;-144.47;100.00;61586.06;4962773;28;20066;-76
2022/01/29 04:29:22;;;;;;;33.45;21.70;;;;;;;-144.47;100.00;61586.06;4959756;28;20533;-75
2022/01/29 04:34:20;;;;;;;34.70;20.95;;;;;;;-144.47;100.00;61586.06;4957000;28;20035;-75
2022/01/29 04:36:45;;;;;;;36.42;22.02;;;;;;;-144.47;100.00;61586.06;4963840;28;20030;-76
2022/01/29 04:39:11;;;;;;;33.20;20.55;;;;;;;-144.47;100.00;61586.06;4960396;28;20499;-75
2022/01/29 04:41:37;;;;;;;32.75;19.67;;;;;;;-144.47;100.00;61586.06;4962917;28;20039;-76
2022/01/29 04:44:03;;;;;;;34.25;21.45;;;;;;;-144.47;100.00;61586.06;4961319;28;20034;-76
2022/01/29 04:46:28;;;;;;;30.30;20.10;;;;;;;-144.47;100.00;61586.06;4960834;28;20050;-76
2022/01/29 04:48:54;;;;;;;32.67;20.48;;;;;;;-144.47;100.00;61586.06;4961992;28;20034;-77
2022/01/29 04:51:20;;;;;;;30.92;20.20;;;;;;;-144.47;100.00;61586.06;4959815;28;20030;-76
2022/01/29 04:53:46;;;;;;;37.10;20.83;;;;;;;-144.47;100.00;61586.06;4977925;28;20058;-75
2022/01/29 04:56:11;;;;;;;30.77;20.02;;;;;;;-144.47;100.00;61586.06;4959475;28;20353;-76
2022/01/29 04:58:37;;;;;;;33.92;21.00;;;;;;;-144.47;100.00;61586.06;4962176;28;20122;-76
2022/01/29 05:01:04;;;;;;;29.40;19.77;;;;;;;-144.47;100.00;61586.06;4959444;28;20037;-77
2022/01/29 05:03:29;;;;;;;30.88;20.25;;;;;;;-144.47;100.00;61586.06;4959459;28;20133;-76
2022/01/29 05:05:55;;;;;;;30.92;21.13;;;;;;;-144.47;100.00;61586.06;4962028;28;20057;-76
2022/01/29 05:08:20;;;;;;;32.88;21.02;;;;;;;-144.47;100.00;61586.06;4959678;28;20070;-75
2022/01/29 05:10:47;;;;;;;32.50;20.45;;;;;;;-144.47;100.00;61586.06;4962869;28;20130;-76
2022/01/29 05:13:16;;;;;;;32.50;19.60;;;;;;;-144.47;100.00;61586.06;4962615;28;20035;-75
2022/01/29 05:16:00;;;;;;;29.67;21.02;;;;;;;-144.47;100.00;61586.06;4959304;28;20127;-75
2022/01/29 05:29:22;;;;;;;35.22;21.25;;;;;;;-144.47;100.00;61586.06;4956601;28;20090;-75
2022/01/29 05:31:51;;;;;;;33.38;20.08;;;;;;;-144.47;100.00;61586.06;4977026;28;20038;-76
2022/01/29 05:34:21;;;;;;;29.13;21.30;;;;;;;-144.47;100.00;61586.06;4955088;28;20034;-76
2022/01/29 05:36:46;;;;;;;33.28;21.15;;;;;;;-144.47;100.00;61586.06;4974094;28;20054;-76
2022/01/29 05:39:12;;;;;;;32.72;20.33;;;;;;;-144.47;100.00;61586.06;4954938;28;20123;-77
2022/01/29 05:41:38;;;;;;;32.75;20.90;;;;;;;-144.47;100.00;61586.06;4961693;28;20063;-75
2022/01/29 05:44:03;;;;;;;39.03;21.65;;;;;;;-144.47;100.00;61586.06;4960527;28;20053;-76
2022/01/29 05:46:29;;;;;;;33.72;21.25;;;;;;;-144.47;100.00;61586.06;4974950;28;20039;-74
2022/01/29 05:48:54;;;;;;;32.78;21.17;;;;;;;-144.47;100.00;61586.06;4960901;28;20427;-76
2022/01/29 05:51:20;;;;;;;36.20;22.13;;;;;;;-144.47;100.00;61586.06;4973756;28;20118;-76
2022/01/29 05:53:45;;;;;;;32.08;21.88;;;;;;;-144.47;100.00;61586.06;4962478;28;20027;-76
2022/01/29 05:56:11;;;;;;;31.05;21.17;;;;;;;-144.47;100.00;61586.06;4959089;28;20429;-76
2022/01/29 05:58:37;;;;;;;31.85;20.92;;;;;;;-144.47;100.00;61586.06;4961602;28;20365;-77
2022/01/29 06:01:03;;;;;;;36.35;21.10;;;;;;;-144.47;100.00;61586.06;4960684;28;20081;-77
2022/01/29 06:03:28;;;;;;;34.28;20.00;;;;;;;-144.47;100.00;61586.06;4959766;28;20040;-76
2022/01/29 06:05:54;;;;;;;28.02;20.45;;;;;;;-144.47;100.00;61586.06;4961673;28;20550;-76
2022/01/29 06:08:19;;;;;;;31.80;20.98;;;;;;;-144.47;100.00;61586.06;4973604;28;20019;-76
2022/01/29 06:10:46;;;;;;;35.05;21.13;;;;;;;-144.47;100.00;61586.06;4962569;28;20027;-76
2022/01/29 06:13:14;;;;;;;31.58;21.10;;;;;;;-144.47;100.00;61586.06;4959378;28;20043;-77
2022/01/29 06:15:45;;;;;;;32.50;21.38;;;;;;;-144.47;100.00;61586.06;4962094;28;20038;-75
2022/01/29 06:18:15;;;;;;;30.45;20.52;;;;;;;-144.47;100.00;61586.06;4958294;28;20039;-74
2022/01/29 06:20:42;;;;;;;28.85;20.40;;;;;;;-144.47;100.00;61586.06;4961698;28;20038;-76
2022/01/29 06:23:09;;;;;;;31.20;20.55;;;;;;;-144.47;100.00;61586.06;4959407;28;20122;-75
2022/01/29 06:25:35;;;;;;;28.98;20.70;;;;;;;-144.47;100.00;61586.06;4976397;28;20043;-75
2022/01/29 06:28:01;;;;;;;32.47;20.98;;;;;;;-144.47;100.00;61586.06;4961318;28;20050;-76
2022/01/29 06:30:26;;;;;;;32.60;20.15;;;;;;;-144.47;100.00;61586.06;4961017;28;20058;-76
2022/01/29 06:32:51;;;;;;;36.88;22.70;;;;;;;-144.47;100.00;61586.06;4967513;28;20030;-76
2022/01/29 06:35:17;;;;;;;31.73;21.70;;;;;;;-144.47;100.00;61586.06;4963433;28;20027;-75
2022/01/29 06:37:42;;;;;;;36.38;21.80;;;;;;;-144.47;100.00;61586.06;4962428;28;20049;-76
2022/01/29 06:40:09;;;;;;;36.38;21.80;;;;;;;-144.47;100.00;61586.06;4974538;28;20113;-77
2022/01/29 06:42:34;;;;;;;29.42;20.52;;;;;;;-144.47;100.00;61586.06;4960960;28;20043;-75
2022/01/29 06:45:00;;;;;;;28.88;19.80;;;;;;;-144.47;100.00;61586.06;4961010;28;20440;-76
2022/01/29 06:47:26;;;;;;;33.45;21.63;;;;;;;-144.47;100.00;61586.06;4959345;28;20090;-76
2022/01/29 06:49:51;;;;;;;33.15;20.50;;;;;;;-144.47;100.00;61586.06;4961361;28;20081;-76
2022/01/29 06:52:17;;;;;;;31.33;19.48;;;;;;;-144.47;100.00;61586.06;4961310;28;20371;-76
2022/01/29 06:54:43;;;;;;;34.83;22.17;;;;;;;-144.47;100.00;61586.06;4962371;28;20118;-76
2022/01/29 06:57:08;;;;;;;35.83;21.15;;;;;;;-144.47;100.00;61586.06;4964391;28;20043;-76
2022/01/29 06:59:34;;;;;;;31.63;20.80;;;;;;;-144.47;100.00;61586.06;4963534;28;20043;-76
2022/01/29 07:01:59;;;;;;;33.67;21.48;;;;;;;-144.47;100.00;61586.06;4961687;28;20054;-76
2022/01/29 07:04:25;;;;;;;34.25;21.90;;;;;;;-144.47;100.00;61586.06;4963196;28;20039;-77
2022/01/29 07:06:50;;;;;;;33.63;21.77;;;;;;;-144.47;100.00;61586.06;4961545;28;20059;-76
2022/01/29 07:09:15;;;;;;;34.55;21.00;;;;;;;-144.47;100.00;61586.06;4964451;28;20705;-76
2022/01/29 07:11:43;;;;;;;30.13;20.27;;;;;;;-144.47;100.00;61586.06;4961484;28;20484;-78
2022/01/29 07:14:15;;;;;;;37.42;21.10;;;;;;;-144.47;100.00;61586.06;4963768;28;20031;-75
2022/01/29 07:16:40;;;;;;;30.95;20.75;;;;;;;-144.47;100.00;61586.06;4962281;28;20039;-77
2022/01/29 07:19:06;;;;;;;39.20;22.25;;;;;;;-144.47;100.00;61586.06;4962241;28;20046;-77
2022/01/29 07:21:31;;;;;;;31.98;21.23;;;;;;;-144.47;100.00;61586.06;4962501;28;20089;-77
2022/01/29 07:23:57;;;;;;;32.30;21.17;;;;;;;-144.47;100.00;61586.06;4963664;28;20418;-75
2022/01/29 07:26:22;;;;;;;32.25;21.33;;;;;;;-144.47;100.00;61586.06;4961572;28;20028;-76
2022/01/29 07:28:48;;;;;;;36.83;21.15;;;;;;;-144.47;100.00;61586.06;4964581;28;20062;-76
2022/01/29 07:31:13;;;;;;;36.10;21.33;;;;;;;-144.47;100.00;61586.06;4960913;28;20031;-76
2022/01/29 07:33:39;;;;;;;34.15;21.75;;;;;;;-144.47;100.00;61586.06;4964028;28;20054;-76
2022/01/29 07:36:05;;;;;;;29.60;20.75;;;;;;;-144.47;100.00;61586.06;4962527;28;20085;-77
2022/01/29 07:38:30;;;;;;;35.97;22.20;;;;;;;-144.47;100.00;61586.06;4962797;28;20023;-75
2022/01/29 07:40:56;;;;;;;30.20;21.10;;;;;;;-144.47;100.00;61586.06;4963336;28;20042;-76
2022/01/29 07:43:22;;;;;;;30.67;20.30;;;;;;;-144.47;100.00;61586.06;4961711;28;20081;-77
2022/01/29 07:45:47;;;;;;;29.42;20.75;;;;;;;-144.47;100.00;61586.06;4964672;28;20069;-76
2022/01/29 07:48:13;;;;;;;30.45;20.15;;;;;;;-144.47;100.00;61586.06;4959694;28;20035;-76
2022/01/29 07:50:38;;;;;;;26.98;19.88;;;;;;;-144.47;100.00;61586.06;4962063;28;20046;-77
2022/01/29 07:53:04;;;;;;;32.97;20.23;;;;;;;-144.47;100.00;61586.06;4960700;28;20049;-76
2022/01/29 07:55:30;;;;;;;29.00;20.15;;;;;;;-144.47;100.00;61586.06;4960850;28;20049;-76
2022/01/29 07:58:01;;;;;;;28.35;19.92;;;;;;;-144.47;100.00;61586.06;4963346;28;20058;-76
2022/01/29 08:00:27;;;;;;;;;;;;;;;-144.47;100.00;61586.06;4962369;28;20031;-76
2022/01/29 08:02:52;;;;;;;30.83;20.73;;;;;;;-144.47;100.00;61586.06;4963344;28;20370;-77
2022/01/29 08:05:18;;;;;;;34.25;20.65;;;;;;;-144.47;100.00;61586.06;4960408;28;20028;-77
2022/01/29 08:07:44;;;;;;;31.20;20.80;;;;;;;-144.47;100.00;61586.06;4960663;28;20086;-76
2022/01/29 08:10:10;;;;;;;29.50;19.02;;;;;;;-144.47;100.00;61586.06;4963056;28;20038;-77
2022/01/29 08:12:36;;;;;;;33.85;20.08;;;;;;;-144.47;100.00;61586.06;4961754;28;20054;-75
2022/01/29 08:15:03;;;;;;;29.45;21.42;;;;;;;-144.47;100.00;61586.06;4962481;28;20027;-75
2022/01/29 08:17:28;;;;;;;31.17;20.42;;;;;;;-144.47;100.00;61586.06;4962300;28;20047;-75
2022/01/29 08:19:54;;;;;;;31.58;19.90;;;;;;;-144.47;100.00;61586.06;4962673;28;20030;-75
2022/01/29 08:22:19;;;;;;;35.03;21.02;;;;;;;-144.47;100.00;61586.06;4961295;28;20693;-76
2022/01/29 08:24:45;;;;;;;36.58;20.90;;;;;;;-144.47;100.00;61586.06;4956969;28;20073;-77
2022/01/29 08:27:11;;;;;;;32.72;21.42;;;;;;;-144.47;100.00;61586.06;4956852;28;20119;-76
2022/01/29 08:29:36;;;;;;;31.75;20.95;;;;;;;-144.47;100.00;61586.06;4971551;28;20678;-73
2022/01/29 08:32:04;;;;;;;36.20;21.85;;;;;;;-144.47;100.00;61586.06;4972439;28;20519;-76
2022/01/29 08:34:30;;;;;;;38.72;23.15;;;;;;;-144.47;100.00;61586.06;4626606;28;10000414;-78
2022/01/29 08:37:01;;;;;;;33.03;22.15;;;;;;;-144.47;100.00;61586.06;4977142;28;20046;-78
2022/01/29 08:39:26;;;;;;;32.90;21.90;;;;;;;-144.47;100.00;61586.06;4958510;28;20468;-77
2022/01/29 08:41:53;;;;;;;32.15;21.98;;;;;;;-144.47;100.00;61586.06;4963168;28;20062;-77
2022/01/29 08:44:19;;;;;;;28.52;20.55;;;;;;;-144.47;100.00;61586.06;4979123;28;20125;-75
2022/01/29 08:46:44;;;;;;;34.20;21.73;;;;;;;-144.47;100.00;61586.06;4953251;28;20039;-77
2022/01/29 08:49:10;;;;;;;36.22;21.90;;;;;;;-144.47;100.00;61586.06;4964653;28;20035;-78
2022/01/29 08:51:36;;;;;;;32.30;21.13;;;;;;;-144.47;100.00;61586.06;4976552;28;20480;-76
2022/01/29 08:54:02;;;;;;;29.40;21.65;;;;;;;-144.47;100.00;61586.06;4961333;28;20039;-77
2022/01/29 08:56:29;;;;;;;36.08;23.00;;;;;;;-144.47;100.00;61586.06;4962890;28;20027;-75
2022/01/29 08:58:55;;;;;;;35.20;22.58;;;;;;;-144.47;100.00;61586.06;4960501;28;20041;-76
2022/01/29 09:01:22;;;;;;;35.60;22.63;;;;;;;-144.47;100.00;61586.06;4959663;28;20163;-75
2022/01/29 09:03:48;;;;;;;36.08;21.95;;;;;;;-144.47;100.00;61586.06;4964178;28;20479;-74
2022/01/29 09:06:14;;;;;;;32.83;21.40;;;;;;;-144.47;100.00;61586.06;4959070;28;20034;-75
2022/01/29 09:08:40;;;;;;;34.35;22.08;;;;;;;-144.47;100.00;61586.06;4964367;28;20067;-75
2022/01/29 09:11:10;;;;;;;32.05;23.00;;;;;;;-144.47;100.00;61586.06;4958778;28;20034;-76
2022/01/29 09:13:36;;;;;;;38.05;22.85;;;;;;;-144.47;100.00;61586.06;4964640;28;20169;-76
2022/01/29 09:16:02;;;;;;;36.72;22.88;;;;;;;-144.47;100.00;61586.06;4953514;28;20526;-75
2022/01/29 09:18:28;;;;;;;31.50;23.30;;;;;;;-144.47;100.00;61586.06;4953914;28;20158;-74
2022/01/29 09:20:54;;;;;;;34.33;20.60;;;;;;;-144.47;100.00;61586.06;4954214;28;20031;-76
2022/01/29 09:23:19;;;;;;;30.70;21.42;;;;;;;-144.47;100.00;61586.06;4953058;28;20484;-72
2022/01/29 09:25:46;;;;;;;34.85;22.08;;;;;;;-144.47;100.00;61586.06;4954595;28;20035;-73
2022/01/29 09:28:13;;;;;;;33.90;22.10;;;;;;;-144.47;100.00;61586.06;4952806;28;20362;-74
2022/01/29 09:30:46;;;;;;;31.98;21.33;;;;;;;-144.47;100.00;61586.06;4970357;28;20094;-75
2022/01/29 09:33:12;;;;;;;35.17;22.02;;;;;;;-144.47;100.00;61586.06;4953134;28;20452;-77
2022/01/29 09:35:41;;;;;;;34.78;22.67;;;;;;;-144.47;100.00;61586.06;4953855;28;20031;-77
2022/01/29 09:38:08;;;;;;;31.30;21.67;;;;;;;-144.47;100.00;61586.06;4953516;28;20058;-75
2022/01/29 09:40:34;;;;;;;34.95;22.08;;;;;;;-144.47;100.00;61586.06;4952136;28;20041;-78
2022/01/29 09:43:01;;;;;;;36.72;22.17;;;;;;;-144.47;100.00;61586.06;4952221;28;20035;-81
2022/01/29 09:45:27;;;;;;;34.17;23.73;;;;;;;-144.47;100.00;61586.06;4948711;28;20058;-79
2022/01/29 09:48:03;;;;;;;33.85;21.45;;;;;;;-144.47;100.00;61586.06;4977961;28;20035;-78
2022/01/29 09:50:38;;;;;;;35.15;21.27;;;;;;;-144.47;100.00;61586.06;4957387;28;20053;-75
2022/01/29 10:01:04;;;;;;;35.13;22.42;;;;;;;-144.47;100.00;61586.06;4963468;28;20120;-77
2022/01/29 10:03:30;;;;;;;40.78;23.48;;;;;;;-144.47;100.00;61586.06;4963749;28;20043;-75
2022/01/29 10:06:00;;;;;;;38.70;24.13;;;;;;;-144.47;100.00;61586.06;4962509;28;20485;-76
2022/01/29 10:08:27;;;;;;;45.22;25.95;;;;;;;-144.47;100.00;61586.06;4959309;28;20142;-74
2022/01/29 10:10:57;;;;;;;38.33;24.25;;;;;;;-144.47;100.00;61586.06;4957422;28;20456;-76
2022/01/29 10:13:38;;;;;;;37.40;24.27;;;;;;;-144.47;100.00;61586.06;4955317;28;20047;-76
2022/01/29 10:16:20;;;;;;;37.15;22.92;;;;;;;-144.47;100.00;61586.06;4958864;28;20109;-74
2022/01/29 10:18:57;;;;;;;38.67;22.98;;;;;;;-144.47;100.00;61586.06;4958867;28;20047;-75
2022/01/29 10:21:25;;;;;;;38.30;23.58;;;;;;;-144.47;100.00;61586.06;4961596;28;20041;-75
2022/01/29 10:24:08;;;;;;;41.58;25.73;;;;;;;-144.47;100.00;61586.06;4960653;28;20027;-76
2022/01/29 10:26:35;;;;;;;35.33;23.50;;;;;;;-144.47;100.00;61586.06;4962467;28;20039;-76
2022/01/29 10:29:03;;;;;;;44.30;25.40;;;;;;;-144.47;100.00;61586.06;4964461;28;20078;-76
2022/01/29 10:31:56;;;;;;;43.95;23.80;;;;;;;-144.47;100.00;61586.06;4963590;28;20042;-76
2022/01/29 10:34:24;;;;;;;41.58;24.73;;;;;;;-144.47;100.00;61586.06;4960006;28;20047;-77
2022/01/29 10:37:13;;;;;;;41.30;25.90;;;;;;;-144.47;100.00;61586.06;4965696;28;20110;-75
2022/01/29 10:39:39;;;;;;;41.30;24.73;;;;;;;-144.47;100.00;61586.06;4965474;28;20035;-75
2022/01/29 10:42:38;;;;;;;46.28;25.45;;;;;;;-144.47;100.00;61586.06;4963610;28;20343;-75
2022/01/29 10:45:06;;;;;;;46.22;26.08;;;;;;;-144.47;100.00;61586.06;4962717;28;20073;-75
2022/01/29 10:47:52;;;;;;;43.42;25.05;;;;;;;-144.47;100.00;61586.06;4964630;28;20046;-75
2022/01/29 10:50:18;;;;;;;40.28;25.73;;;;;;;-144.47;100.00;61586.06;4959054;28;20041;-77
2022/01/29 10:52:43;;;;;;;39.92;25.58;;;;;;;-144.47;100.00;61586.06;4965871;28;20109;-75
2022/01/29 10:55:10;;;;;;;41.85;25.98;;;;;;;-144.47;100.00;61586.06;4962772;28;20163;-76
2022/01/29 10:57:39;;;;;;;36.88;25.45;;;;;;;-144.47;100.00;61586.06;4963143;28;20031;-76
2022/01/29 11:00:20;;;;;;;39.22;24.92;;;;;;;-144.47;100.00;61586.06;4963106;28;20058;-75
2022/01/29 11:02:46;;;;;;;42.75;26.15;;;;;;;-144.47;100.00;61586.06;4956693;28;20040;-75
2022/01/29 11:05:14;;;;;;;43.25;26.67;;;;;;;-144.47;100.00;61586.06;4964664;28;20093;-75
2022/01/29 11:07:41;;;;;;;42.60;26.45;;;;;;;-144.47;100.00;61586.06;4962779;28;20562;-76
2022/01/29 11:10:08;;;;;;;47.05;26.67;;;;;;;-144.47;100.00;61586.06;4964378;28;20102;-74
2022/01/29 11:12:38;;;;;;;41.42;25.75;;;;;;;-144.47;100.00;61586.06;4963060;28;20039;-75
2022/01/29 11:15:05;;;;;;;37.47;24.33;;;;;;;-144.47;100.00;61586.06;4963498;28;20095;-75
2022/01/29 11:17:31;;;;;;;40.83;25.85;;;;;;;-144.47;100.00;61586.06;4963471;28;20047;-74